createdAt,value
2023-04-28T13:02:45.459Z,21.70
2023-04-28T13:05:14.281Z,21.40
2023-04-28T13:07:43.790Z,21.20
2023-04-28T13:10:12.868Z,21.00
2023-04-28T13:12:41.193Z,20.80
2023-04-28T13:15:10.171Z,20.70
2023-04-28T13:17:38.036Z,20.70
2023-04-28T13:20:06.958Z,20.80
2023-04-28T13:22:34.784Z,20.80
2023-04-28T13:25:04.022Z,20.30
2023-04-28T13:27:33.223Z,20.10
2023-04-28T13:30:01.078Z,20.20
2023-04-28T13:32:29.683Z,20.20
2023-04-28T13:34:57.562Z,20.40
2023-04-28T13:37:25.530Z,20.60
2023-04-28T13:39:53.382Z,20.60
2023-04-28T13:42:22.557Z,20.30
2023-04-28T13:44:51.647Z,20.10
2023-04-28T13:47:19.808Z,20.00
2023-04-28T13:49:47.764Z,20.10
2023-04-28T13:52:15.762Z,20.30
2023-04-28T13:54:43.877Z,20.60
2023-04-28T13:57:13.592Z,20.50
2023-04-28T13:59:42.832Z,20.60
2023-04-28T14:02:11.688Z,20.40
2023-04-28T14:04:39.872Z,20.30
2023-04-28T14:07:09.821Z,20.20
2023-04-28T14:09:37.658Z,20.20
2023-04-28T14:12:06.156Z,20.20
2023-04-28T14:14:34.300Z,20.10
2023-04-28T14:17:04.483Z,19.90
2023-04-28T14:19:32.349Z,19.80
2023-04-28T14:22:00.165Z,19.50
2023-04-28T14:24:28.077Z,19.40
2023-04-28T14:41:46.939Z,19.80
2023-04-28T14:44:14.779Z,19.80
2023-04-28T14:46:43.418Z,19.70
2023-04-28T14:49:11.866Z,19.70
2023-04-28T14:51:41.534Z,19.60
2023-04-28T14:54:10.307Z,19.60
2023-04-28T14:56:38.182Z,19.40
2023-04-28T14:59:06.019Z,19.40
2023-04-28T15:01:33.908Z,19.30
2023-04-28T15:04:02.040Z,19.30
2023-04-28T15:06:30.035Z,19.10
2023-04-28T15:08:59.243Z,19.10
2023-04-28T15:11:27.241Z,19.10
2023-04-28T15:13:55.105Z,19.20
2023-04-28T15:16:23.009Z,19.10
2023-04-28T15:18:50.854Z,19.00
2023-04-28T15:21:18.674Z,18.70
2023-04-28T15:23:46.574Z,18.70
2023-04-28T15:26:15.845Z,18.70
